Terminal Aerodrome Forecast
Issued by NWS

Home | Current Version | Previous Version | Text Only | Print | Product List | Glossary On
Versions: 1 2 3 4 5 6 7 8 9 10 11 12 13 14
144
FTAK31 PAJN 300653 AAA
TAFAWG
TAF AMD
PAWG 300653Z 3007/3106 VRB04KT P6SM VCSH BKN040 OVC060
     FM301000 11004KT P6SM BCFG SCT005 OVC020
     FM301400 11007KT P6SM VCSH BKN050
     FM310300 12015G25KT P6SM -RA OVC040 WS020/15035KT
      AMD NOT SKED=

USA.gov is the U.S. government's official web portal to all federal, state and local government web resources and services.